Time;durP1;ratioP1;P1;durP2;ratioP2;P2;SDS_P1;SDS_P2;PMS_P1;PMS_P2;Temp;Humidity;BMP_temperature;BMP_pressure;BME280_temperature;BME280_humidity;BME280_pressure;Samples;Min_cycle;Max_cycle;Signal;HPM_P1;HPM_P2
2022/09/22 00:00:00;;;;;;;;;;;22.10;44.10;20.90;102140.00;;;;5109098;27;19919;-69
2022/09/22 00:02:46;;;;;;;;;;;22.10;44.10;20.90;102145.00;;;;5107949;27;19943;-69
2022/09/22 00:05:32;;;;;;;;;;;22.10;44.10;20.90;102138.00;;;;5108937;27;19994;-69
2022/09/22 00:08:18;;;;;;;;;;;22.10;44.10;20.90;102140.00;;;;5106719;27;19977;-69
2022/09/22 00:11:04;;;;;;;;;;;22.00;44.00;20.90;102138.00;;;;5108443;27;20022;-69
2022/09/22 00:13:57;;;;;;;;;;;22.10;44.00;20.80;102141.00;;;;5107888;27;20050;-69
2022/09/22 00:16:47;;;;;;;;;;;22.00;44.00;20.90;102138.00;;;;5082363;27;19919;-69
2022/09/22 00:19:34;;;;;;;;;;;22.00;44.00;20.80;102129.00;;;;5107232;27;19950;-69
2022/09/22 00:22:20;;;;;;;;;;;22.10;44.10;20.90;102143.00;;;;5090247;27;19915;-69
2022/09/22 00:25:07;;;;;;;;;;;22.00;44.00;20.80;102128.00;;;;5110134;27;20371;-69
2022/09/22 00:27:53;;;;;;;;;;;22.00;44.00;20.80;102130.00;;;;5094129;27;19915;-69
2022/09/22 00:30:41;;;;;;;;;;;22.00;44.00;20.80;102126.00;;;;5109926;27;19998;-69
2022/09/22 00:33:27;;;;;;;;;;;22.00;44.00;20.80;102129.00;;;;5092935;28;19918;-69
2022/09/22 00:36:13;;;;;;;;;;;22.00;44.00;20.80;102128.00;;;;5104990;28;19912;-69
2022/09/22 00:38:59;;;;;;;;;;;22.00;43.90;20.80;102125.00;;;;5107839;27;19959;-69
2022/09/22 00:41:47;;;;;;;;;;;22.00;43.90;20.80;102132.00;;;;5110121;27;19911;-69
2022/09/22 00:44:38;;;;;;;;;;;22.00;44.00;20.80;102131.00;;;;5093010;28;19919;-69
2022/09/22 00:47:33;;;;;;;;;;;22.00;44.00;20.80;102131.00;;;;5106748;27;19915;-69
2022/09/22 00:50:21;;;;;;;;;;;22.00;43.90;20.80;102127.00;;;;5091070;28;20951;-69
2022/09/22 00:53:09;;;;;;;;;;;22.00;44.00;20.80;102122.00;;;;5092942;27;20001;-69
2022/09/22 00:55:58;;;;;;;;;;;21.90;43.90;20.80;102117.00;;;;5089554;27;19911;-69
2022/09/22 00:58:56;;;;;;;;;;;21.90;43.90;20.80;102117.00;;;;5105119;27;20261;-69
2022/09/22 01:01:42;;;;;;;;;;;21.90;43.90;20.70;102116.00;;;;5093021;27;19915;-69
2022/09/22 01:04:28;;;;;;;;;;;21.90;43.90;20.80;102117.00;;;;5105884;27;19923;-69
2022/09/22 01:07:14;;;;;;;;;;;21.90;43.90;20.80;102118.00;;;;5088114;28;19911;-69
2022/09/22 01:10:00;;;;;;;;;;;21.90;43.90;20.70;102106.00;;;;5105612;27;19930;-69
2022/09/22 01:13:09;;;;;;;;;;;21.90;43.90;20.70;102107.00;;;;5103068;27;19916;-69
2022/09/22 01:16:25;;;;;;;;;;;21.90;43.90;20.70;102100.00;;;;5100266;27;20007;-69
2022/09/22 01:19:49;;;;;;;;;;;21.90;43.90;20.70;102102.00;;;;5106909;27;20217;-69
2022/09/22 01:23:01;;;;;;;;;;;21.90;43.90;20.70;102099.00;;;;5101177;27;19918;-69
2022/09/22 01:26:01;;;;;;;;;;;21.90;43.90;20.70;102094.00;;;;5091069;27;19947;-69
2022/09/22 01:29:02;;;;;;;;;;;21.90;43.90;20.70;102084.00;;;;5088954;27;20010;-69
2022/09/22 01:32:22;;;;;;;;;;;21.90;43.90;20.70;102091.00;;;;5092742;27;19915;-69
2022/09/22 01:35:17;;;;;;;;;;;21.90;43.80;20.70;102090.00;;;;5085324;28;20320;-69
2022/09/22 01:38:05;;;;;;;;;;;21.90;43.90;20.70;102081.00;;;;5106428;27;19927;-69
2022/09/22 01:40:59;;;;;;;;;;;21.80;43.80;20.70;102083.00;;;;5098918;27;20384;-69
2022/09/22 01:43:52;;;;;;;;;;;21.90;43.90;20.70;102081.00;;;;5087039;27;19922;-69
2022/09/22 01:47:17;;;;;;;;;;;21.80;43.80;20.70;102085.00;;;;5091684;27;19927;-69
2022/09/22 01:50:25;;;;;;;;;;;21.90;43.80;20.60;102085.00;;;;5081417;27;20352;-69
2022/09/22 01:53:13;;;;;;;;;;;21.80;43.70;20.70;102089.00;;;;5099940;27;19916;-69
2022/09/22 01:56:01;;;;;;;;;;;21.80;43.70;20.70;102083.00;;;;5104003;27;20268;-69
2022/09/22 01:58:52;;;;;;;;;;;21.80;43.70;20.60;102074.00;;;;5087977;28;19912;-69
2022/09/22 02:01:41;;;;;;;;;;;21.80;43.70;20.60;102073.00;;;;5085721;28;19927;-69
2022/09/22 02:04:39;;;;;;;;;;;21.80;43.70;20.60;102063.00;;;;5098158;27;19912;-69
2022/09/22 02:07:29;;;;;;;;;;;21.80;43.70;20.60;102063.00;;;;5091388;28;19920;-69
2022/09/22 02:10:17;;;;;;;;;;;21.80;43.70;20.60;102066.00;;;;5090165;28;20021;-69
2022/09/22 02:13:03;;;;;;;;;;;21.90;43.80;20.60;102058.00;;;;5090276;28;19912;-69
2022/09/22 02:16:01;;;;;;;;;;;21.80;43.70;20.60;102063.00;;;;5084104;28;19920;-69
2022/09/22 02:19:01;;;;;;;;;;;21.80;43.60;20.60;102057.00;;;;5104282;27;19916;-69
2022/09/22 02:21:47;;;;;;;;;;;21.80;43.70;20.60;102062.00;;;;5088968;27;20011;-69
2022/09/22 02:24:33;;;;;;;;;;;21.80;43.60;20.60;102054.00;;;;5099694;28;19911;-69
2022/09/22 02:27:25;;;;;;;;;;;21.80;43.60;20.60;102062.00;;;;5104380;27;19915;-69
2022/09/22 02:30:11;;;;;;;;;;;21.80;43.60;20.60;102062.00;;;;5115555;27;19966;-69
2022/09/22 02:32:57;;;;;;;;;;;21.80;43.60;20.60;102052.00;;;;5085436;28;20353;-69
2022/09/22 02:35:44;;;;;;;;;;;21.80;43.60;20.60;102059.00;;;;5100343;27;19923;-69
2022/09/22 02:38:40;;;;;;;;;;;21.80;43.60;20.60;102055.00;;;;5086509;28;20249;-69
2022/09/22 02:41:56;;;;;;;;;;;21.80;43.60;20.60;102046.00;;;;5076014;28;19949;-69
2022/09/22 02:45:04;;;;;;;;;;;21.80;43.60;20.60;102043.00;;;;5070793;28;19919;-69
2022/09/22 02:48:04;;;;;;;;;;;21.80;43.60;20.60;102043.00;;;;5100535;28;20335;-69
2022/09/22 02:50:50;;;;;;;;;;;21.80;43.60;20.50;102044.00;;;;5102069;28;19918;-69
2022/09/22 02:53:36;;;;;;;;;;;21.80;43.60;20.50;102043.00;;;;5102763;28;20181;-69
2022/09/22 02:56:22;;;;;;;;;;;21.80;43.60;20.50;102044.00;;;;5102202;28;19916;-69
2022/09/22 02:59:08;;;;;;;;;;;21.70;43.50;20.50;102037.00;;;;5101899;28;19915;-69
2022/09/22 03:01:54;;;;;;;;;;;21.80;43.50;20.50;102032.00;;;;5089612;28;19915;-69
2022/09/22 03:04:40;;;;;;;;;;;21.80;43.50;20.50;102034.00;;;;5105128;28;19919;-69
2022/09/22 03:07:26;;;;;;;;;;;21.70;43.50;20.50;102033.00;;;;5102102;28;19916;-69
2022/09/22 03:10:12;;;;;;;;;;;21.70;43.50;20.50;102029.00;;;;5100983;28;19924;-69
2022/09/22 03:12:58;;;;;;;;;;;21.70;43.40;20.50;102035.00;;;;5101233;28;19920;-69
2022/09/22 03:15:44;;;;;;;;;;;21.70;43.40;20.50;102039.00;;;;5102359;28;19919;-69
2022/09/22 03:18:30;;;;;;;;;;;21.70;43.40;20.50;102036.00;;;;5103059;28;19963;-69
2022/09/22 03:21:16;;;;;;;;;;;21.70;43.50;20.50;102033.00;;;;5104203;28;19959;-69
2022/09/22 03:24:02;;;;;;;;;;;21.70;43.40;20.50;102036.00;;;;5105813;27;19911;-69
2022/09/22 03:26:48;;;;;;;;;;;21.70;43.40;20.50;102037.00;;;;5093407;27;19915;-69
2022/09/22 03:29:34;;;;;;;;;;;21.70;43.40;20.50;102027.00;;;;5099979;27;19915;-69
2022/09/22 03:32:21;;;;;;;;;;;21.70;43.50;20.50;102028.00;;;;5111955;27;20410;-69
2022/09/22 03:35:07;;;;;;;;;;;21.70;43.40;20.50;102026.00;;;;5104207;28;19923;-69
2022/09/22 03:37:53;;;;;;;;;;;21.70;43.40;20.50;102028.00;;;;5105921;27;19922;-69
2022/09/22 03:40:39;;;;;;;;;;;21.70;43.40;20.50;102021.00;;;;5106235;27;19911;-69
2022/09/22 03:43:25;;;;;;;;;;;21.70;43.40;20.50;102017.00;;;;5108233;27;19912;-69
2022/09/22 03:46:13;;;;;;;;;;;21.70;43.40;20.40;102016.00;;;;5093124;28;19919;-69
2022/09/22 03:48:59;;;;;;;;;;;21.60;44.10;20.40;102012.00;;;;5104443;28;20372;-69
2022/09/22 03:51:44;;;;;;;;;;;21.70;43.40;20.40;102013.00;;;;5090416;27;19919;-69
2022/09/22 03:54:31;;;;;;;;;;;21.60;43.30;20.40;102015.00;;;;5105624;27;19916;-69
2022/09/22 03:57:17;;;;;;;;;;;21.70;43.30;20.40;102014.00;;;;5093456;28;19912;-69
2022/09/22 04:00:03;;;;;;;;;;;21.60;43.30;20.40;102004.00;;;;5094710;28;19912;-69
2022/09/22 04:02:50;;;;;;;;;;;21.60;43.30;20.40;102011.00;;;;5086685;28;19919;-69
2022/09/22 04:05:36;;;;;;;;;;;21.60;43.30;20.40;102012.00;;;;5096244;27;19911;-69
2022/09/22 04:08:22;;;;;;;;;;;21.60;43.30;20.40;102006.00;;;;5102293;27;19923;-69
2022/09/22 04:11:08;;;;;;;;;;;21.60;43.30;20.40;102005.00;;;;5108377;27;20384;-69
2022/09/22 04:13:54;;;;;;;;;;;21.60;43.30;20.40;102008.00;;;;5107082;27;19918;-69
2022/09/22 04:16:41;;;;;;;;;;;21.60;43.30;20.40;101994.00;;;;5105686;27;19969;-69
2022/09/22 04:19:27;;;;;;;;;;;21.60;43.30;20.40;102000.00;;;;5106475;27;20037;-69
2022/09/22 04:22:13;;;;;;;;;;;21.60;43.30;20.40;101993.00;;;;5107375;27;19926;-69
2022/09/22 04:24:59;;;;;;;;;;;21.60;43.30;20.40;101984.00;;;;5098418;28;19963;-69
2022/09/22 04:27:45;;;;;;;;;;;21.60;43.30;20.40;101995.00;;;;5105248;28;20399;-69
2022/09/22 04:30:31;;;;;;;;;;;21.60;43.20;20.40;102000.00;;;;5105383;27;20384;-69
2022/09/22 04:33:17;;;;;;;;;;;21.60;43.20;20.40;101997.00;;;;5103869;27;20107;-69
2022/09/22 04:36:03;;;;;;;;;;;21.60;43.20;20.40;101986.00;;;;5111239;27;19911;-69
2022/09/22 04:38:49;;;;;;;;;;;21.60;43.20;20.30;101994.00;;;;5122093;27;19918;-69
2022/09/22 04:41:35;;;;;;;;;;;21.60;43.20;20.30;101986.00;;;;5103785;27;19911;-69
2022/09/22 04:44:21;;;;;;;;;;;21.60;43.20;20.30;101987.00;;;;5105147;27;19912;-69
2022/09/22 04:47:07;;;;;;;;;;;21.60;43.20;20.30;101992.00;;;;5108384;27;19977;-69
2022/09/22 04:49:53;;;;;;;;;;;21.50;43.10;20.30;101994.00;;;;5104220;27;19919;-69
2022/09/22 04:52:44;;;;;;;;;;;21.50;43.20;20.30;101992.00;;;;5100272;28;20264;-69
2022/09/22 04:55:30;;;;;;;;;;;21.60;43.20;20.30;101995.00;;;;5092694;27;19965;-69
2022/09/22 04:58:16;;;;;;;;;;;21.60;43.20;20.30;101994.00;;;;5100785;27;19912;-69
2022/09/22 05:01:03;;;;;;;;;;;21.50;43.10;20.30;101986.00;;;;5104572;27;19912;-69
2022/09/22 05:03:48;;;;;;;;;;;21.60;43.20;20.30;101992.00;;;;5105133;27;19922;-69
2022/09/22 05:06:35;;;;;;;;;;;21.60;43.20;20.30;101992.00;;;;5079706;28;19918;-69
2022/09/22 05:09:21;;;;;;;;;;;21.60;43.20;20.30;101990.00;;;;5104393;27;19931;-69
2022/09/22 05:12:07;;;;;;;;;;;21.60;43.20;20.30;101988.00;;;;5101607;27;20335;-69
2022/09/22 05:14:53;;;;;;;;;;;21.50;43.10;20.30;101984.00;;;;5098899;27;19970;-69
2022/09/22 05:17:49;;;;;;;;;;;21.50;43.10;20.30;102000.00;;;;5100387;27;20374;-69
2022/09/22 05:20:36;;;;;;;;;;;21.50;43.10;20.30;101987.00;;;;5100375;27;19915;-69
2022/09/22 05:23:22;;;;;;;;;;;21.50;43.10;20.30;101988.00;;;;5089497;28;19912;-69
2022/09/22 05:26:08;;;;;;;;;;;21.50;43.10;20.30;101994.00;;;;5097820;27;19923;-69
2022/09/22 05:28:54;;;;;;;;;;;21.50;43.10;20.30;101996.00;;;;5102787;27;20018;-69
2022/09/22 05:31:40;;;;;;;;;;;21.50;43.00;20.30;101993.00;;;;5098390;27;19916;-69
2022/09/22 05:34:26;;;;;;;;;;;21.50;43.10;20.30;101994.00;;;;5099777;27;19919;-69
2022/09/22 05:37:12;;;;;;;;;;;21.50;43.00;20.30;102008.00;;;;5088936;28;19965;-69
2022/09/22 05:39:58;;;;;;;;;;;21.50;43.10;20.30;102002.00;;;;5094649;28;19919;-69
2022/09/22 05:42:46;;;;;;;;;;;21.50;43.00;20.20;102007.00;;;;5102591;27;19926;-69
2022/09/22 05:45:31;;;;;;;;;;;21.50;43.10;20.30;102000.00;;;;5098151;27;19923;-69
2022/09/22 05:48:17;;;;;;;;;;;21.50;43.00;20.20;102011.00;;;;5101191;27;19934;-69
2022/09/22 05:51:03;;;;;;;;;;;21.50;43.00;20.20;102002.00;;;;5097321;27;19920;-69
2022/09/22 05:53:50;;;;;;;;;;;21.50;43.00;20.20;101997.00;;;;5095512;27;20382;-69
2022/09/22 05:56:36;;;;;;;;;;;21.50;43.00;20.20;102009.00;;;;5097406;27;19911;-69
2022/09/22 05:59:22;;;;;;;;;;;21.50;43.00;20.20;102004.00;;;;5098051;27;19962;-69
2022/09/22 06:02:10;;;;;;;;;;;21.50;43.00;20.20;102008.00;;;;5099382;27;19915;-69
2022/09/22 06:04:56;;;;;;;;;;;21.40;42.90;20.20;102008.00;;;;5099824;27;19922;-69
2022/09/22 06:07:42;;;;;;;;;;;21.40;42.90;20.20;102004.00;;;;5097210;27;19963;-69
2022/09/22 06:10:50;;;;;;;;;;;21.40;43.00;20.20;102010.00;;;;5101643;27;19916;-69
2022/09/22 06:13:36;;;;;;;;;;;21.40;43.00;20.20;102012.00;;;;5093778;27;19919;-69
2022/09/22 06:16:22;;;;;;;;;;;21.40;42.90;20.20;102007.00;;;;5093581;28;20408;-69
2022/09/22 06:19:08;;;;;;;;;;;21.40;42.90;20.20;102002.00;;;;5090898;28;20297;-69
2022/09/22 06:21:54;;;;;;;;;;;21.50;43.00;20.20;102012.00;;;;5095912;28;19912;-69
2022/09/22 06:24:41;;;;;;;;;;;21.50;43.00;20.20;102011.00;;;;5088155;28;19933;-69
2022/09/22 06:27:27;;;;;;;;;;;21.40;42.90;20.20;102011.00;;;;5096009;28;19916;-69
2022/09/22 06:30:13;;;;;;;;;;;21.40;43.00;20.20;101999.00;;;;5075899;28;19951;-69
2022/09/22 06:32:59;;;;;;;;;;;21.40;42.90;20.20;102004.00;;;;5089023;28;19916;-69
2022/09/22 06:35:45;;;;;;;;;;;21.50;43.00;20.20;102003.00;;;;5085257;28;19911;-69
2022/09/22 06:38:31;;;;;;;;;;;21.50;42.90;20.20;102005.00;;;;5095900;27;19941;-69
2022/09/22 06:41:17;;;;;;;;;;;21.50;42.90;20.20;102005.00;;;;5093916;27;19920;-69
2022/09/22 06:44:04;;;;;;;;;;;21.50;42.90;20.20;102003.00;;;;5097394;28;19938;-69
2022/09/22 06:46:50;;;;;;;;;;;21.50;42.90;20.20;102008.00;;;;5090032;28;19950;-69
2022/09/22 06:49:36;;;;;;;;;;;21.50;42.90;20.20;102006.00;;;;5095645;28;19916;-69
2022/09/22 06:52:22;;;;;;;;;;;21.40;42.90;20.20;102011.00;;;;5098575;28;19912;-69
2022/09/22 06:55:09;;;;;;;;;;;21.50;42.90;20.30;102017.00;;;;5096822;28;19916;-69
2022/09/22 06:57:57;;;;;;;;;;;21.50;42.90;20.30;102015.00;;;;5101605;28;19961;-69
2022/09/22 07:00:43;;;;;;;;;;;21.50;42.90;20.30;102008.00;;;;5103142;28;20224;-69
2022/09/22 07:03:31;;;;;;;;;;;21.50;42.90;20.30;102007.00;;;;5099361;28;19916;-69
2022/09/22 07:06:17;;;;;;;;;;;21.50;42.90;20.30;102003.00;;;;5100933;27;19925;-69
2022/09/22 07:09:03;;;;;;;;;;;21.50;42.90;20.30;102001.00;;;;5104909;27;19919;-69
2022/09/22 07:11:49;;;;;;;;;;;21.50;42.90;20.30;102003.00;;;;5103255;27;19954;-69
2022/09/22 07:14:35;;;;;;;;;;;21.60;42.90;20.30;102008.00;;;;5110742;27;19912;-69
2022/09/22 07:17:22;;;;;;;;;;;21.60;43.00;20.30;102000.00;;;;5107629;27;19912;-69
2022/09/22 07:20:08;;;;;;;;;;;21.60;42.90;20.30;101998.00;;;;5098492;27;19976;-69
2022/09/22 07:22:59;;;;;;;;;;;21.60;42.90;20.30;102009.00;;;;5106689;27;19915;-69
2022/09/22 07:25:59;;;;;;;;;;;21.60;42.90;20.30;102012.00;;;;5105277;27;19920;-69
2022/09/22 07:28:49;;;;;;;;;;;21.60;43.00;20.30;102006.00;;;;5110606;27;19915;-69
2022/09/22 07:31:35;;;;;;;;;;;21.60;42.90;20.40;102008.00;;;;5108527;27;19999;-69
2022/09/22 07:34:21;;;;;;;;;;;21.60;42.90;20.40;101999.00;;;;5098549;27;19965;-69
2022/09/22 07:37:10;;;;;;;;;;;21.60;42.90;20.40;102007.00;;;;5101438;28;19915;-69
2022/09/22 07:39:56;;;;;;;;;;;21.60;42.90;20.40;102009.00;;;;5099595;27;20056;-69
2022/09/22 07:42:42;;;;;;;;;;;21.70;43.00;20.40;102007.00;;;;5101975;27;20319;-69
2022/09/22 07:45:28;;;;;;;;;;;21.70;43.70;20.40;102009.00;;;;5113658;27;20270;-69
2022/09/22 07:48:47;;;;;;;;;;;21.70;42.90;20.40;102009.00;;;;5098555;27;20365;-69
2022/09/22 07:51:27;;;;;;;;;;;21.70;42.90;20.40;102011.00;;;;5104341;27;19979;-69
2022/09/22 07:54:13;;;;;;;;;;;21.70;42.90;20.40;102000.00;;;;5102873;27;19993;-69
2022/09/22 07:56:59;;;;;;;;;;;21.70;42.90;20.40;102010.00;;;;5100731;27;19912;-69
2022/09/22 07:59:45;;;;;;;;;;;21.70;42.90;20.40;102003.00;;;;5100971;27;19947;-69
2022/09/22 08:02:31;;;;;;;;;;;21.70;42.90;20.40;102000.00;;;;5102412;27;19915;-69
2022/09/22 08:05:17;;;;;;;;;;;21.80;43.00;20.40;102001.00;;;;5108042;27;19919;-69
2022/09/22 08:08:04;;;;;;;;;;;21.80;43.00;20.40;101998.00;;;;5096129;27;19911;-69
2022/09/22 08:10:50;;;;;;;;;;;21.80;43.00;20.40;101998.00;;;;5088096;27;20154;-69
2022/09/22 08:13:37;;;;;;;;;;;21.70;42.90;20.40;102006.00;;;;5101431;27;20289;-69
2022/09/22 08:16:27;;;;;;;;;;;21.70;43.20;20.40;102000.00;;;;5103107;27;20361;-69
2022/09/22 08:19:13;;;;;;;;;;;21.80;43.00;20.40;101999.00;;;;5100229;27;19916;-69
2022/09/22 08:21:59;;;;;;;;;;;21.80;43.00;20.50;102001.00;;;;5103368;27;19911;-69
2022/09/22 08:24:45;;;;;;;;;;;21.80;43.00;20.50;101997.00;;;;5102172;27;19918;-69
2022/09/22 08:27:33;;;;;;;;;;;21.80;42.90;20.50;101997.00;;;;5096729;27;19915;-69
2022/09/22 08:30:19;;;;;;;;;;;21.80;42.90;20.50;101996.00;;;;5086401;28;20300;-69
2022/09/22 08:33:06;;;;;;;;;;;21.80;43.70;20.50;101992.00;;;;5084907;28;20404;-69
2022/09/22 08:35:56;;;;;;;;;;;21.80;42.90;20.50;101996.00;;;;5102853;27;20356;-69
2022/09/22 08:38:44;;;;;;;;;;;21.80;43.00;20.50;101992.00;;;;5078421;28;19920;-69
2022/09/22 08:41:39;;;;;;;;;;;21.80;43.00;20.50;102001.00;;;;5103287;27;19911;-69
2022/09/22 08:44:36;;;;;;;;;;;21.80;42.90;20.50;102007.00;;;;5096592;28;19912;-69
2022/09/22 08:53:55;;;;;;;;;;;21.80;43.00;20.50;101998.00;;;;5096236;27;20272;-69
2022/09/22 08:56:43;;;;;;;;;;;21.80;43.00;20.50;101993.00;;;;5094623;27;19920;-69
2022/09/22 08:59:32;;;;;;;;;;;21.90;43.10;20.50;101991.00;;;;5100102;27;20328;-69
2022/09/22 09:02:40;;;;;;;;;;;21.80;43.00;20.50;101990.00;;;;5096102;27;19916;-69
2022/09/22 09:05:38;;;;;;;;;;;21.80;43.00;20.50;101991.00;;;;5085518;28;19919;-69
2022/09/22 09:08:55;;;;;;;;;;;21.80;43.00;20.50;101991.00;;;;5097232;27;19923;-69
2022/09/22 09:12:05;;;;;;;;;;;21.80;43.00;20.50;101991.00;;;;5087961;28;19911;-69
2022/09/22 09:15:10;;;;;;;;;;;21.80;43.00;20.50;101990.00;;;;5100613;27;20096;-69
2022/09/22 09:17:58;;;;;;;;;;;21.80;43.00;20.50;101991.00;;;;5101201;27;20014;-69
2022/09/22 09:20:47;;;;;;;;;;;21.80;43.00;20.50;101984.00;;;;5089228;28;19977;-69
2022/09/22 09:23:45;;;;;;;;;;;21.80;43.10;20.50;101990.00;;;;5100160;27;19916;-69
2022/09/22 09:26:32;;;;;;;;;;;21.90;43.10;20.50;101983.00;;;;5097464;27;19919;-69
2022/09/22 09:29:21;;;;;;;;;;;21.90;43.20;20.60;101982.00;;;;5081280;27;19927;-69
2022/09/22 09:32:13;;;;;;;;;;;21.90;43.10;20.60;101977.00;;;;5097872;27;20353;-69
2022/09/22 09:35:00;;;;;;;;;;;21.90;43.10;20.60;101981.00;;;;5074239;28;19949;-69
2022/09/22 09:37:46;;;;;;;;;;;21.90;43.10;20.60;101981.00;;;;5096165;27;19916;-69
2022/09/22 09:40:32;;;;;;;;;;;21.90;43.10;20.60;101975.00;;;;5084732;28;20041;-69
2022/09/22 09:43:19;;;;;;;;;;;21.80;43.00;20.60;101978.00;;;;5101053;27;19945;-69
2022/09/22 09:46:42;;;;;;;;;;;21.90;43.10;20.60;101979.00;;;;5078907;28;19912;-69
2022/09/22 09:49:28;;;;;;;;;;;21.90;43.10;20.60;101980.00;;;;5096388;27;20444;-69
2022/09/22 09:52:14;;;;;;;;;;;21.90;43.10;20.60;101975.00;;;;5100823;27;20361;-69
2022/09/22 09:55:00;;;;;;;;;;;21.90;43.10;20.60;101977.00;;;;5112274;27;19988;-69
2022/09/22 09:58:04;;;;;;;;;;;21.90;43.10;20.60;101973.00;;;;5082480;28;19915;-69
2022/09/22 10:00:57;;;;;;;;;;;21.90;43.10;20.60;101967.00;;;;5100479;27;19923;-69
2022/09/22 10:03:46;;;;;;;;;;;21.90;43.10;20.60;101964.00;;;;5101510;27;19920;-69
2022/09/22 10:06:32;;;;;;;;;;;21.90;43.10;20.60;101966.00;;;;5085385;27;20366;-69
2022/09/22 10:09:26;;;;;;;;;;;22.00;43.10;20.60;101957.00;;;;5097895;27;19931;-69
2022/09/22 10:12:29;;;;;;;;;;;21.90;43.10;20.60;101954.00;;;;5090049;28;19943;-69
2022/09/22 10:15:24;;;;;;;;;;;22.00;43.20;20.60;101961.00;;;;5090748;28;19912;-69
2022/09/22 10:18:23;;;;;;;;;;;22.00;43.10;20.60;101951.00;;;;5083668;28;19967;-69
2022/09/22 10:21:21;;;;;;;;;;;22.00;43.10;20.70;101943.00;;;;5098644;27;19919;-69
2022/09/22 10:24:30;;;;;;;;;;;22.00;43.80;20.70;101951.00;;;;5087869;27;19942;-69
2022/09/22 10:27:19;;;;;;;;;;;22.00;43.20;20.70;101946.00;;;;5086410;28;20021;-69
2022/09/22 10:30:09;;;;;;;;;;;22.00;43.10;20.70;101944.00;;;;5094155;27;20378;-69
2022/09/22 10:33:25;;;;;;;;;;;22.00;43.10;20.70;101937.00;;;;5093431;28;19912;-69
2022/09/22 10:36:11;;;;;;;;;;;22.00;43.10;20.70;101945.00;;;;5081712;28;20015;-69
2022/09/22 10:38:57;;;;;;;;;;;22.00;43.10;20.70;101949.00;;;;5096643;27;19939;-69
2022/09/22 10:41:43;;;;;;;;;;;22.00;43.10;20.70;101948.00;;;;5099071;28;20369;-69
2022/09/22 10:44:30;;;;;;;;;;;22.00;43.10;20.70;101945.00;;;;5096139;28;19922;-69
2022/09/22 10:47:31;;;;;;;;;;;22.00;43.10;20.70;101935.00;;;;5096530;28;19912;-69
2022/09/22 10:50:40;;;;;;;;;;;21.90;43.10;20.70;101932.00;;;;5090602;28;20022;-69
2022/09/22 10:53:49;;;;;;;;;;;22.00;43.10;20.70;101934.00;;;;5083622;28;19916;-69
2022/09/22 10:56:37;;;;;;;;;;;22.00;43.20;20.70;101930.00;;;;5097790;28;19945;-69
2022/09/22 10:59:54;;;;;;;;;;;22.00;43.10;20.70;101931.00;;;;5080341;28;19951;-69
2022/09/22 11:03:06;;;;;;;;;;;22.00;43.10;20.70;101926.00;;;;5096670;28;19919;-69
2022/09/22 11:13:04;;;;;;;;;;;22.00;43.10;20.70;101919.00;;;;5099899;28;19956;-69
2022/09/22 11:16:06;;;;;;;;;;;22.00;43.10;20.70;101923.00;;;;5096328;28;19999;-69
2022/09/22 11:19:08;;;;;;;;;;;22.10;43.20;20.70;101916.00;;;;5082447;28;20258;-69
2022/09/22 11:22:32;;;;;;;;;;;22.10;43.20;20.80;101906.00;;;;5090259;28;19915;-69
2022/09/22 11:25:21;;;;;;;;;;;22.10;43.20;20.80;101911.00;;;;5081941;28;19927;-69
2022/09/22 11:28:33;;;;;;;;;;;22.10;43.10;20.80;101910.00;;;;5102021;28;19915;-69
2022/09/22 11:31:42;;;;;;;;;;;22.10;43.20;20.80;101906.00;;;;5096042;28;19916;-69
2022/09/22 11:34:46;;;;;;;;;;;22.10;43.10;20.80;101905.00;;;;5090953;28;19916;-69
2022/09/22 11:37:51;;;;;;;;;;;22.10;43.10;20.80;101901.00;;;;5094994;28;19916;-69
2022/09/22 11:41:00;;;;;;;;;;;22.10;43.10;20.80;101899.00;;;;5095804;28;19912;-69
2022/09/22 11:44:08;;;;;;;;;;;22.10;43.10;20.80;101893.00;;;;5099601;27;20284;-69
2022/09/22 11:47:38;;;;;;;;;;;22.10;43.10;20.80;101885.00;;;;5088223;28;19934;-69
2022/09/22 11:50:30;;;;;;;;;;;22.10;43.10;20.80;101884.00;;;;5037755;28;19916;-69
2022/09/22 11:53:45;;;;;;;;;;;22.10;43.10;20.80;101884.00;;;;5093908;28;19916;-70
2022/09/22 11:56:37;;;;;;;;;;;22.20;43.20;20.80;101875.00;;;;5084333;28;20298;-70
2022/09/22 11:59:43;;;;;;;;;;;22.20;43.10;20.80;101865.00;;;;5082330;28;19922;-69
2022/09/22 12:02:48;;;;;;;;;;;22.20;43.10;20.80;101878.00;;;;5079642;28;19916;-69
2022/09/22 12:05:44;;;;;;;;;;;22.20;43.00;20.80;101875.00;;;;5103313;28;19919;-69
2022/09/22 12:08:35;;;;;;;;;;;22.10;43.00;20.80;101861.00;;;;5090496;27;20465;-69
2022/09/22 12:11:21;;;;;;;;;;;22.20;43.00;20.90;101856.00;;;;5081258;28;20381;-69
2022/09/22 12:14:12;;;;;;;;;;;22.20;43.00;20.90;101853.00;;;;5100809;28;19922;-69
2022/09/22 12:17:20;;;;;;;;;;;22.20;43.00;20.90;101852.00;;;;5087204;28;19911;-69
2022/09/22 12:20:34;;;;;;;;;;;22.30;43.00;20.90;101842.00;;;;5084177;28;19920;-69
2022/09/22 12:23:36;;;;;;;;;;;22.20;42.90;20.90;101845.00;;;;5082758;28;20349;-70
2022/09/22 12:26:26;;;;;;;;;;;22.20;42.90;20.90;101841.00;;;;5105968;27;19920;-69
2022/09/22 12:29:18;;;;;;;;;;;22.20;42.90;20.90;101843.00;;;;5093796;27;20303;-71
2022/09/22 12:32:04;;;;;;;;;;;22.20;42.90;20.90;101839.00;;;;5101752;27;20036;-71
2022/09/22 12:34:50;;;;;;;;;;;22.20;42.90;20.90;101840.00;;;;5097013;27;19965;-71
2022/09/22 12:37:37;;;;;;;;;;;22.30;42.90;20.90;101828.00;;;;5075776;28;19962;-71
2022/09/22 12:40:30;;;;;;;;;;;22.30;42.90;20.90;101827.00;;;;5101337;27;19978;-71
2022/09/22 12:43:19;;;;;;;;;;;22.30;42.90;20.90;101823.00;;;;5103915;28;19912;-71
2022/09/22 12:46:18;;;;;;;;;;;22.30;42.90;21.00;101817.00;;;;5099151;28;19916;-71
2022/09/22 12:49:08;;;;;;;;;;;22.20;42.90;21.00;101811.00;;;;5097196;28;20077;-71
2022/09/22 12:51:54;;;;;;;;;;;22.30;42.90;21.00;101814.00;;;;5087328;28;19915;-71
2022/09/22 12:54:40;;;;;;;;;;;22.30;42.90;21.00;101816.00;;;;5078707;28;19911;-71
2022/09/22 12:57:26;;;;;;;;;;;22.30;42.90;21.00;101814.00;;;;5081677;28;19949;-72
2022/09/22 13:00:16;;;;;;;;;;;22.30;42.90;21.00;101817.00;;;;5095863;28;20102;-71
2022/09/22 13:03:24;;;;;;;;;;;22.30;43.60;21.00;101805.00;;;;5098156;27;19922;-71
2022/09/22 13:06:22;;;;;;;;;;;22.30;42.80;21.00;101803.00;;;;5097232;27;20376;-71
2022/09/22 13:09:15;;;;;;;;;;;22.30;42.80;21.00;101808.00;;;;5086508;28;19924;-72
2022/09/22 13:12:10;;;;;;;;;;;22.20;42.70;21.00;101806.00;;;;5082367;28;20299;-71
2022/09/22 13:15:15;;;;;;;;;;;22.40;42.80;21.00;101799.00;;;;5092642;28;19919;-71
2022/09/22 13:18:01;;;;;;;;;;;22.40;42.80;21.00;101801.00;;;;5078658;28;19915;-71
2022/09/22 13:20:48;;;;;;;;;;;22.40;42.80;21.00;101795.00;;;;5092328;28;19930;-71
2022/09/22 13:23:34;;;;;;;;;;;22.40;42.80;21.00;101799.00;;;;5099097;28;19923;-72
2022/09/22 13:26:22;;;;;;;;;;;22.40;42.80;21.00;101800.00;;;;5091063;28;19912;-71
2022/09/22 13:29:21;;;;;;;;;;;22.40;42.70;21.00;101788.00;;;;5095527;28;19919;-71
2022/09/22 13:32:18;;;;;;;;;;;22.40;42.70;21.00;101793.00;;;;5085488;27;19912;-71
2022/09/22 13:35:21;;;;;;;;;;;22.40;42.70;21.00;101789.00;;;;5085137;28;19915;-71
2022/09/22 13:38:07;;;;;;;;;;;22.40;42.70;21.00;101783.00;;;;5091898;27;20012;-71
2022/09/22 13:40:53;;;;;;;;;;;22.40;42.70;21.00;101787.00;;;;5081215;28;20056;-71
2022/09/22 13:43:40;;;;;;;;;;;22.40;42.70;21.00;101789.00;;;;5099267;27;19923;-71
2022/09/22 13:47:03;;;;;;;;;;;22.40;42.70;21.10;101782.00;;;;5097342;27;20384;-74
2022/09/22 13:49:50;;;;;;;;;;;22.40;42.60;21.10;101781.00;;;;5096533;28;20348;-71
2022/09/22 13:52:37;;;;;;;;;;;22.40;42.70;21.10;101778.00;;;;5083036;28;19915;-71
2022/09/22 13:55:31;;;;;;;;;;;22.40;42.60;21.10;101769.00;;;;5100702;28;19916;-71
2022/09/22 13:58:24;;;;;;;;;;;22.40;42.60;21.10;101768.00;;;;5084709;28;19915;-71
2022/09/22 14:01:18;;;;;;;;;;;22.40;42.60;21.10;101769.00;;;;5103784;27;19963;-71